sensor_id;sensor_type;location;lat;lon;timestamp;P1;durP1;ratioP1;P2;durP2;ratioP2
71790;SDS011;59638;52.126;5.434;2022-08-01T00:02:27;3.47;;;1.70;;
71790;SDS011;59638;52.126;5.434;2022-08-01T00:04:54;2.07;;;1.40;;
71790;SDS011;59638;52.126;5.434;2022-08-01T00:07:21;3.10;;;1.98;;
71790;SDS011;59638;52.126;5.434;2022-08-01T00:09:47;4.50;;;1.90;;
71790;SDS011;59638;52.126;5.434;2022-08-01T00:12:14;2.25;;;1.73;;
71790;SDS011;59638;52.126;5.434;2022-08-01T00:14:40;2.67;;;1.55;;
71790;SDS011;59638;52.126;5.434;2022-08-01T00:17:07;1.87;;;1.47;;
71790;SDS011;59638;52.126;5.434;2022-08-01T00:19:33;2.00;;;1.60;;
71790;SDS011;59638;52.126;5.434;2022-08-01T00:22:00;1.92;;;1.20;;
71790;SDS011;59638;52.126;5.434;2022-08-01T00:24:26;3.33;;;1.85;;
71790;SDS011;59638;52.126;5.434;2022-08-01T00:26:53;4.47;;;1.70;;
71790;SDS011;59638;52.126;5.434;2022-08-01T00:29:19;2.10;;;1.43;;
71790;SDS011;59638;52.126;5.434;2022-08-01T00:32:05;3.72;;;1.40;;
71790;SDS011;59638;52.126;5.434;2022-08-01T00:34:33;2.42;;;1.73;;
71790;SDS011;59638;52.126;5.434;2022-08-01T00:36:59;3.35;;;1.80;;
71790;SDS011;59638;52.126;5.434;2022-08-01T00:39:26;2.33;;;1.42;;
71790;SDS011;59638;52.126;5.434;2022-08-01T00:41:52;3.13;;;2.37;;
71790;SDS011;59638;52.126;5.434;2022-08-01T00:44:25;5.63;;;1.55;;
71790;SDS011;59638;52.126;5.434;2022-08-01T00:46:52;3.42;;;2.08;;
71790;SDS011;59638;52.126;5.434;2022-08-01T00:49:19;3.42;;;2.08;;
71790;SDS011;59638;52.126;5.434;2022-08-01T00:51:45;4.90;;;1.77;;
71790;SDS011;59638;52.126;5.434;2022-08-01T00:54:12;3.97;;;2.00;;
71790;SDS011;59638;52.126;5.434;2022-08-01T00:56:42;5.32;;;2.05;;
71790;SDS011;59638;52.126;5.434;2022-08-01T00:59:09;4.18;;;2.13;;
71790;SDS011;59638;52.126;5.434;2022-08-01T01:01:40;4.15;;;2.00;;
71790;SDS011;59638;52.126;5.434;2022-08-01T01:04:12;4.65;;;2.47;;
71790;SDS011;59638;52.126;5.434;2022-08-01T01:06:44;4.53;;;2.63;;
71790;SDS011;59638;52.126;5.434;2022-08-01T01:12:38;4.53;;;2.70;;
71790;SDS011;59638;52.126;5.434;2022-08-01T01:15:17;5.72;;;2.97;;
71790;SDS011;59638;52.126;5.434;2022-08-01T01:20:42;7.63;;;2.97;;
71790;SDS011;59638;52.126;5.434;2022-08-01T01:31:55;5.85;;;2.45;;
71790;SDS011;59638;52.126;5.434;2022-08-01T01:34:24;5.53;;;2.70;;
71790;SDS011;59638;52.126;5.434;2022-08-01T01:36:54;4.68;;;3.08;;
71790;SDS011;59638;52.126;5.434;2022-08-01T01:39:24;5.50;;;2.53;;
71790;SDS011;59638;52.126;5.434;2022-08-01T01:41:54;5.72;;;2.90;;
71790;SDS011;59638;52.126;5.434;2022-08-01T01:44:22;7.38;;;3.05;;
71790;SDS011;59638;52.126;5.434;2022-08-01T01:46:51;6.90;;;2.77;;
71790;SDS011;59638;52.126;5.434;2022-08-01T01:49:23;6.43;;;3.50;;
71790;SDS011;59638;52.126;5.434;2022-08-01T01:51:53;5.25;;;3.00;;
71790;SDS011;59638;52.126;5.434;2022-08-01T01:54:29;4.10;;;2.72;;
71790;SDS011;59638;52.126;5.434;2022-08-01T01:56:59;7.47;;;3.13;;
71790;SDS011;59638;52.126;5.434;2022-08-01T01:59:29;5.33;;;3.30;;
71790;SDS011;59638;52.126;5.434;2022-08-01T02:01:58;7.43;;;2.83;;
71790;SDS011;59638;52.126;5.434;2022-08-01T02:04:38;6.07;;;3.28;;
71790;SDS011;59638;52.126;5.434;2022-08-01T02:07:09;4.50;;;3.45;;
71790;SDS011;59638;52.126;5.434;2022-08-01T02:09:38;5.40;;;3.17;;
71790;SDS011;59638;52.126;5.434;2022-08-01T02:12:09;8.17;;;3.33;;
71790;SDS011;59638;52.126;5.434;2022-08-01T02:14:38;5.22;;;3.58;;
71790;SDS011;59638;52.126;5.434;2022-08-01T02:17:06;5.20;;;3.55;;
71790;SDS011;59638;52.126;5.434;2022-08-01T02:19:36;4.22;;;3.38;;
71790;SDS011;59638;52.126;5.434;2022-08-01T02:22:11;6.47;;;3.75;;
71790;SDS011;59638;52.126;5.434;2022-08-01T02:24:43;10.03;;;3.80;;
71790;SDS011;59638;52.126;5.434;2022-08-01T02:27:16;9.00;;;4.13;;
71790;SDS011;59638;52.126;5.434;2022-08-01T02:29:58;6.70;;;3.88;;
71790;SDS011;59638;52.126;5.434;2022-08-01T02:32:27;9.18;;;3.78;;
71790;SDS011;59638;52.126;5.434;2022-08-01T02:34:58;4.97;;;3.63;;
71790;SDS011;59638;52.126;5.434;2022-08-01T02:37:27;8.57;;;3.13;;
71790;SDS011;59638;52.126;5.434;2022-08-01T02:39:57;12.98;;;3.47;;
71790;SDS011;59638;52.126;5.434;2022-08-01T02:42:26;4.55;;;3.45;;
71790;SDS011;59638;52.126;5.434;2022-08-01T02:44:54;9.25;;;3.67;;
71790;SDS011;59638;52.126;5.434;2022-08-01T02:47:21;6.68;;;3.65;;
71790;SDS011;59638;52.126;5.434;2022-08-01T02:49:49;5.73;;;3.00;;
71790;SDS011;59638;52.126;5.434;2022-08-01T02:52:20;4.68;;;3.05;;
71790;SDS011;59638;52.126;5.434;2022-08-01T02:54:49;8.60;;;3.38;;
71790;SDS011;59638;52.126;5.434;2022-08-01T02:57:19;7.80;;;3.80;;
71790;SDS011;59638;52.126;5.434;2022-08-01T02:59:47;5.28;;;3.70;;
71790;SDS011;59638;52.126;5.434;2022-08-01T03:02:16;5.67;;;3.67;;
71790;SDS011;59638;52.126;5.434;2022-08-01T03:04:45;6.78;;;3.17;;
71790;SDS011;59638;52.126;5.434;2022-08-01T03:07:12;6.10;;;3.60;;
71790;SDS011;59638;52.126;5.434;2022-08-01T03:09:40;7.85;;;4.00;;
71790;SDS011;59638;52.126;5.434;2022-08-01T03:12:11;7.95;;;3.67;;
71790;SDS011;59638;52.126;5.434;2022-08-01T03:14:42;10.23;;;4.10;;
71790;SDS011;59638;52.126;5.434;2022-08-01T03:17:12;7.53;;;4.25;;
71790;SDS011;59638;52.126;5.434;2022-08-01T03:19:42;6.93;;;4.43;;
71790;SDS011;59638;52.126;5.434;2022-08-01T03:22:11;6.88;;;3.53;;
71790;SDS011;59638;52.126;5.434;2022-08-01T03:24:41;7.65;;;3.42;;
71790;SDS011;59638;52.126;5.434;2022-08-01T03:27:10;6.37;;;4.10;;
71790;SDS011;59638;52.126;5.434;2022-08-01T03:29:38;7.88;;;3.55;;
71790;SDS011;59638;52.126;5.434;2022-08-01T03:32:07;7.03;;;4.07;;
71790;SDS011;59638;52.126;5.434;2022-08-01T03:34:36;8.48;;;4.57;;
71790;SDS011;59638;52.126;5.434;2022-08-01T03:37:05;4.95;;;3.53;;
71790;SDS011;59638;52.126;5.434;2022-08-01T03:39:47;9.83;;;4.07;;
71790;SDS011;59638;52.126;5.434;2022-08-01T03:42:17;4.68;;;3.35;;
71790;SDS011;59638;52.126;5.434;2022-08-01T03:44:48;4.93;;;3.97;;
71790;SDS011;59638;52.126;5.434;2022-08-01T03:47:21;6.55;;;3.58;;
71790;SDS011;59638;52.126;5.434;2022-08-01T03:49:51;5.32;;;2.75;;
71790;SDS011;59638;52.126;5.434;2022-08-01T03:52:18;5.70;;;3.60;;
71790;SDS011;59638;52.126;5.434;2022-08-01T03:54:46;4.40;;;3.70;;
71790;SDS011;59638;52.126;5.434;2022-08-01T03:57:14;6.70;;;3.90;;
71790;SDS011;59638;52.126;5.434;2022-08-01T04:00:01;4.00;;;3.28;;
71790;SDS011;59638;52.126;5.434;2022-08-01T04:02:33;3.97;;;3.45;;
71790;SDS011;59638;52.126;5.434;2022-08-01T04:05:01;5.90;;;3.03;;
71790;SDS011;59638;52.126;5.434;2022-08-01T04:07:30;6.20;;;3.13;;
71790;SDS011;59638;52.126;5.434;2022-08-01T04:10:02;4.10;;;3.15;;
71790;SDS011;59638;52.126;5.434;2022-08-01T04:12:29;5.28;;;3.15;;
71790;SDS011;59638;52.126;5.434;2022-08-01T04:14:55;5.13;;;2.97;;
71790;SDS011;59638;52.126;5.434;2022-08-01T04:17:22;5.47;;;3.40;;
71790;SDS011;59638;52.126;5.434;2022-08-01T04:19:48;4.75;;;2.97;;
71790;SDS011;59638;52.126;5.434;2022-08-01T04:22:15;5.40;;;3.75;;
71790;SDS011;59638;52.126;5.434;2022-08-01T04:24:42;4.50;;;3.38;;
71790;SDS011;59638;52.126;5.434;2022-08-01T04:27:31;4.38;;;3.67;;
71790;SDS011;59638;52.126;5.434;2022-08-01T04:30:16;3.83;;;2.97;;
71790;SDS011;59638;52.126;5.434;2022-08-01T04:32:46;4.13;;;3.20;;
71790;SDS011;59638;52.126;5.434;2022-08-01T04:35:14;3.42;;;2.70;;
71790;SDS011;59638;52.126;5.434;2022-08-01T04:38:04;3.42;;;2.83;;
71790;SDS011;59638;52.126;5.434;2022-08-01T04:40:31;5.10;;;3.05;;
71790;SDS011;59638;52.126;5.434;2022-08-01T04:42:59;4.50;;;3.00;;
71790;SDS011;59638;52.126;5.434;2022-08-01T04:45:26;5.50;;;2.88;;
71790;SDS011;59638;52.126;5.434;2022-08-01T04:47:53;3.78;;;2.40;;
71790;SDS011;59638;52.126;5.434;2022-08-01T04:50:20;2.65;;;1.25;;
71790;SDS011;59638;52.126;5.434;2022-08-01T04:52:50;2.13;;;1.25;;
71790;SDS011;59638;52.126;5.434;2022-08-01T04:55:17;2.03;;;0.50;;
71790;SDS011;59638;52.126;5.434;2022-08-01T04:57:44;2.17;;;0.40;;
71790;SDS011;59638;52.126;5.434;2022-08-01T05:00:12;1.00;;;0.50;;
71790;SDS011;59638;52.126;5.434;2022-08-01T05:02:39;0.90;;;0.47;;
71790;SDS011;59638;52.126;5.434;2022-08-01T05:05:05;4.60;;;1.17;;
71790;SDS011;59638;52.126;5.434;2022-08-01T05:07:32;1.50;;;0.50;;
71790;SDS011;59638;52.126;5.434;2022-08-01T05:10:10;0.90;;;0.30;;
71790;SDS011;59638;52.126;5.434;2022-08-01T05:12:37;1.73;;;0.30;;
71790;SDS011;59638;52.126;5.434;2022-08-01T05:15:03;2.22;;;0.40;;
71790;SDS011;59638;52.126;5.434;2022-08-01T05:17:30;1.25;;;0.40;;
71790;SDS011;59638;52.126;5.434;2022-08-01T05:19:57;0.70;;;0.40;;
71790;SDS011;59638;52.126;5.434;2022-08-01T05:22:24;1.20;;;0.60;;
71790;SDS011;59638;52.126;5.434;2022-08-01T05:24:51;1.40;;;0.35;;
71790;SDS011;59638;52.126;5.434;2022-08-01T05:27:19;1.48;;;0.70;;
71790;SDS011;59638;52.126;5.434;2022-08-01T05:29:46;0.85;;;0.30;;
71790;SDS011;59638;52.126;5.434;2022-08-01T05:32:12;3.83;;;0.50;;
71790;SDS011;59638;52.126;5.434;2022-08-01T05:34:39;3.30;;;0.50;;
71790;SDS011;59638;52.126;5.434;2022-08-01T05:37:05;1.20;;;0.50;;
71790;SDS011;59638;52.126;5.434;2022-08-01T05:39:33;0.95;;;0.43;;
71790;SDS011;59638;52.126;5.434;2022-08-01T05:41:59;1.15;;;0.50;;
71790;SDS011;59638;52.126;5.434;2022-08-01T05:44:26;1.47;;;0.80;;
71790;SDS011;59638;52.126;5.434;2022-08-01T05:46:53;1.13;;;0.50;;
71790;SDS011;59638;52.126;5.434;2022-08-01T05:49:19;1.30;;;0.63;;
71790;SDS011;59638;52.126;5.434;2022-08-01T05:51:46;2.08;;;0.80;;
71790;SDS011;59638;52.126;5.434;2022-08-01T05:54:13;1.17;;;0.50;;
71790;SDS011;59638;52.126;5.434;2022-08-01T05:56:39;5.87;;;0.40;;
71790;SDS011;59638;52.126;5.434;2022-08-01T05:59:05;2.13;;;0.60;;
71790;SDS011;59638;52.126;5.434;2022-08-01T06:01:32;1.40;;;0.43;;
71790;SDS011;59638;52.126;5.434;2022-08-01T06:03:58;2.30;;;0.50;;
71790;SDS011;59638;52.126;5.434;2022-08-01T06:06:25;1.65;;;0.60;;
71790;SDS011;59638;52.126;5.434;2022-08-01T06:08:51;1.40;;;0.60;;
71790;SDS011;59638;52.126;5.434;2022-08-01T06:11:18;1.88;;;0.80;;
71790;SDS011;59638;52.126;5.434;2022-08-01T06:13:44;1.27;;;0.50;;
71790;SDS011;59638;52.126;5.434;2022-08-01T06:16:14;0.98;;;0.60;;
71790;SDS011;59638;52.126;5.434;2022-08-01T06:18:41;0.82;;;0.60;;
71790;SDS011;59638;52.126;5.434;2022-08-01T06:21:07;3.03;;;0.60;;
71790;SDS011;59638;52.126;5.434;2022-08-01T06:23:34;1.58;;;0.68;;
71790;SDS011;59638;52.126;5.434;2022-08-01T06:26:00;0.85;;;0.45;;
71790;SDS011;59638;52.126;5.434;2022-08-01T06:28:27;1.00;;;0.50;;
71790;SDS011;59638;52.126;5.434;2022-08-01T06:30:54;1.67;;;0.60;;
71790;SDS011;59638;52.126;5.434;2022-08-01T06:33:20;1.17;;;0.70;;
71790;SDS011;59638;52.126;5.434;2022-08-01T06:35:46;2.92;;;0.40;;
71790;SDS011;59638;52.126;5.434;2022-08-01T06:38:13;1.10;;;0.50;;
71790;SDS011;59638;52.126;5.434;2022-08-01T06:40:39;1.17;;;0.70;;
71790;SDS011;59638;52.126;5.434;2022-08-01T06:43:06;1.95;;;0.60;;
71790;SDS011;59638;52.126;5.434;2022-08-01T06:45:32;0.80;;;0.47;;
71790;SDS011;59638;52.126;5.434;2022-08-01T06:47:59;2.50;;;0.50;;
71790;SDS011;59638;52.126;5.434;2022-08-01T06:50:25;3.38;;;0.57;;
71790;SDS011;59638;52.126;5.434;2022-08-01T06:52:52;1.70;;;0.90;;
71790;SDS011;59638;52.126;5.434;2022-08-01T06:55:18;2.03;;;0.70;;
71790;SDS011;59638;52.126;5.434;2022-08-01T06:57:49;1.60;;;0.63;;
71790;SDS011;59638;52.126;5.434;2022-08-01T07:00:20;1.55;;;0.68;;
71790;SDS011;59638;52.126;5.434;2022-08-01T07:02:52;1.13;;;0.98;;
71790;SDS011;59638;52.126;5.434;2022-08-01T07:05:20;1.80;;;0.63;;
71790;SDS011;59638;52.126;5.434;2022-08-01T07:07:46;1.63;;;0.45;;
71790;SDS011;59638;52.126;5.434;2022-08-01T07:10:13;1.80;;;0.70;;
71790;SDS011;59638;52.126;5.434;2022-08-01T07:12:40;4.07;;;0.80;;
71790;SDS011;59638;52.126;5.434;2022-08-01T07:15:07;2.17;;;0.75;;
71790;SDS011;59638;52.126;5.434;2022-08-01T07:17:38;2.15;;;0.70;;
71790;SDS011;59638;52.126;5.434;2022-08-01T07:20:09;1.30;;;0.80;;
71790;SDS011;59638;52.126;5.434;2022-08-01T07:22:41;1.30;;;0.77;;
71790;SDS011;59638;52.126;5.434;2022-08-01T07:25:08;2.65;;;0.85;;
71790;SDS011;59638;52.126;5.434;2022-08-01T07:27:35;3.65;;;0.85;;
71790;SDS011;59638;52.126;5.434;2022-08-01T07:30:02;2.50;;;1.45;;
71790;SDS011;59638;52.126;5.434;2022-08-01T07:32:30;4.55;;;1.48;;
71790;SDS011;59638;52.126;5.434;2022-08-01T07:34:56;3.83;;;1.27;;
71790;SDS011;59638;52.126;5.434;2022-08-01T07:37:25;2.00;;;1.15;;
71790;SDS011;59638;52.126;5.434;2022-08-01T07:40:11;5.70;;;1.40;;
71790;SDS011;59638;52.126;5.434;2022-08-01T07:42:38;8.23;;;2.03;;
71790;SDS011;59638;52.126;5.434;2022-08-01T07:45:04;7.38;;;2.25;;
71790;SDS011;59638;52.126;5.434;2022-08-01T07:47:31;10.73;;;1.53;;
71790;SDS011;59638;52.126;5.434;2022-08-01T07:50:02;6.05;;;1.35;;
71790;SDS011;59638;52.126;5.434;2022-08-01T07:52:29;6.72;;;1.48;;
71790;SDS011;59638;52.126;5.434;2022-08-01T07:54:56;12.55;;;1.73;;
71790;SDS011;59638;52.126;5.434;2022-08-01T07:57:23;13.82;;;1.67;;
71790;SDS011;59638;52.126;5.434;2022-08-01T07:59:51;11.23;;;1.77;;
71790;SDS011;59638;52.126;5.434;2022-08-01T08:02:17;3.47;;;1.42;;
71790;SDS011;59638;52.126;5.434;2022-08-01T08:04:44;8.48;;;1.30;;
71790;SDS011;59638;52.126;5.434;2022-08-01T08:07:14;11.32;;;1.75;;
71790;SDS011;59638;52.126;5.434;2022-08-01T08:09:41;7.70;;;2.00;;
71790;SDS011;59638;52.126;5.434;2022-08-01T08:12:07;9.37;;;3.17;;
71790;SDS011;59638;52.126;5.434;2022-08-01T08:14:34;11.55;;;2.20;;
71790;SDS011;59638;52.126;5.434;2022-08-01T08:17:01;6.88;;;1.60;;
71790;SDS011;59638;52.126;5.434;2022-08-01T08:19:28;5.60;;;1.40;;
71790;SDS011;59638;52.126;5.434;2022-08-01T08:22:03;5.43;;;1.75;;
71790;SDS011;59638;52.126;5.434;2022-08-01T08:24:30;11.10;;;2.23;;
71790;SDS011;59638;52.126;5.434;2022-08-01T08:26:57;11.73;;;1.67;;
71790;SDS011;59638;52.126;5.434;2022-08-01T08:29:25;13.52;;;1.52;;
71790;SDS011;59638;52.126;5.434;2022-08-01T08:31:53;13.02;;;2.30;;
71790;SDS011;59638;52.126;5.434;2022-08-01T08:34:29;11.98;;;2.35;;
71790;SDS011;59638;52.126;5.434;2022-08-01T08:36:56;14.53;;;1.83;;
71790;SDS011;59638;52.126;5.434;2022-08-01T08:39:24;6.70;;;2.03;;
71790;SDS011;59638;52.126;5.434;2022-08-01T08:41:50;8.95;;;2.20;;
71790;SDS011;59638;52.126;5.434;2022-08-01T08:44:17;11.15;;;1.85;;
71790;SDS011;59638;52.126;5.434;2022-08-01T08:46:47;10.60;;;1.95;;
71790;SDS011;59638;52.126;5.434;2022-08-01T08:49:16;9.40;;;1.50;;
71790;SDS011;59638;52.126;5.434;2022-08-01T08:51:48;5.63;;;1.27;;
71790;SDS011;59638;52.126;5.434;2022-08-01T08:54:16;8.18;;;1.58;;
71790;SDS011;59638;52.126;5.434;2022-08-01T08:56:45;12.68;;;1.73;;
71790;SDS011;59638;52.126;5.434;2022-08-01T08:59:13;5.85;;;1.70;;
71790;SDS011;59638;52.126;5.434;2022-08-01T09:01:40;7.13;;;1.23;;
71790;SDS011;59638;52.126;5.434;2022-08-01T09:04:07;6.97;;;1.02;;
71790;SDS011;59638;52.126;5.434;2022-08-01T09:06:34;6.82;;;1.25;;
71790;SDS011;59638;52.126;5.434;2022-08-01T09:09:00;7.45;;;1.20;;
71790;SDS011;59638;52.126;5.434;2022-08-01T09:11:27;10.23;;;1.15;;
71790;SDS011;59638;52.126;5.434;2022-08-01T09:14:07;8.60;;;0.77;;
71790;SDS011;59638;52.126;5.434;2022-08-01T09:16:35;4.50;;;0.98;;
71790;SDS011;59638;52.126;5.434;2022-08-01T09:19:07;7.03;;;1.08;;
71790;SDS011;59638;52.126;5.434;2022-08-01T09:22:07;5.57;;;0.90;;
71790;SDS011;59638;52.126;5.434;2022-08-01T09:24:36;7.18;;;0.85;;
71790;SDS011;59638;52.126;5.434;2022-08-01T09:27:19;6.93;;;1.30;;
71790;SDS011;59638;52.126;5.434;2022-08-01T09:29:50;7.05;;;1.02;;
71790;SDS011;59638;52.126;5.434;2022-08-01T09:32:27;4.90;;;1.02;;
71790;SDS011;59638;52.126;5.434;2022-08-01T09:38:16;6.32;;;0.90;;
71790;SDS011;59638;52.126;5.434;2022-08-01T09:43:27;7.13;;;1.35;;
71790;SDS011;59638;52.126;5.434;2022-08-01T09:45:56;5.85;;;0.52;;
71790;SDS011;59638;52.126;5.434;2022-08-01T09:48:24;4.97;;;1.13;;
71790;SDS011;59638;52.126;5.434;2022-08-01T09:50:54;8.00;;;1.15;;
71790;SDS011;59638;52.126;5.434;2022-08-01T09:53:20;9.00;;;1.00;;
71790;SDS011;59638;52.126;5.434;2022-08-01T09:56:00;5.85;;;0.95;;
71790;SDS011;59638;52.126;5.434;2022-08-01T09:58:51;8.68;;;1.08;;
71790;SDS011;59638;52.126;5.434;2022-08-01T10:01:28;3.83;;;0.60;;
71790;SDS011;59638;52.126;5.434;2022-08-01T10:04:09;6.45;;;0.88;;
71790;SDS011;59638;52.126;5.434;2022-08-01T10:06:38;4.10;;;1.07;;
71790;SDS011;59638;52.126;5.434;2022-08-01T10:09:08;3.72;;;1.00;;
71790;SDS011;59638;52.126;5.434;2022-08-01T10:11:36;8.10;;;1.13;;
71790;SDS011;59638;52.126;5.434;2022-08-01T10:14:05;4.07;;;0.68;;
71790;SDS011;59638;52.126;5.434;2022-08-01T10:16:35;5.13;;;0.63;;
71790;SDS011;59638;52.126;5.434;2022-08-01T10:19:04;5.80;;;0.47;;
71790;SDS011;59638;52.126;5.434;2022-08-01T10:21:40;9.48;;;0.75;;
71790;SDS011;59638;52.126;5.434;2022-08-01T10:24:23;5.40;;;1.02;;
71790;SDS011;59638;52.126;5.434;2022-08-01T10:26:52;5.15;;;0.40;;
71790;SDS011;59638;52.126;5.434;2022-08-01T10:29:46;4.28;;;0.75;;
71790;SDS011;59638;52.126;5.434;2022-08-01T10:32:48;4.87;;;0.70;;
71790;SDS011;59638;52.126;5.434;2022-08-01T10:35:20;3.70;;;0.57;;
71790;SDS011;59638;52.126;5.434;2022-08-01T10:38:07;2.95;;;0.35;;
71790;SDS011;59638;52.126;5.434;2022-08-01T10:40:39;2.97;;;0.50;;
71790;SDS011;59638;52.126;5.434;2022-08-01T10:43:11;2.83;;;0.50;;
71790;SDS011;59638;52.126;5.434;2022-08-01T10:45:47;3.67;;;0.50;;
71790;SDS011;59638;52.126;5.434;2022-08-01T10:48:16;4.50;;;0.47;;
71790;SDS011;59638;52.126;5.434;2022-08-01T10:50:48;8.73;;;1.00;;
71790;SDS011;59638;52.126;5.434;2022-08-01T10:53:22;3.33;;;0.90;;
71790;SDS011;59638;52.126;5.434;2022-08-01T10:56:07;3.10;;;0.40;;
71790;SDS011;59638;52.126;5.434;2022-08-01T10:58:39;3.60;;;0.80;;
71790;SDS011;59638;52.126;5.434;2022-08-01T11:01:23;4.90;;;0.60;;
71790;SDS011;59638;52.126;5.434;2022-08-01T11:03:58;2.95;;;0.40;;
71790;SDS011;59638;52.126;5.434;2022-08-01T11:09:15;6.45;;;0.73;;
71790;SDS011;59638;52.126;5.434;2022-08-01T11:12:11;4.07;;;0.60;;
71790;SDS011;59638;52.126;5.434;2022-08-01T11:20:11;6.10;;;0.73;;
71790;SDS011;59638;52.126;5.434;2022-08-01T11:28:24;4.60;;;0.77;;
71790;SDS011;59638;52.126;5.434;2022-08-01T11:41:09;5.63;;;0.60;;
71790;SDS011;59638;52.126;5.434;2022-08-01T11:43:53;7.35;;;1.08;;
71790;SDS011;59638;52.126;5.434;2022-08-01T11:46:44;3.30;;;0.55;;
71790;SDS011;59638;52.126;5.434;2022-08-01T11:49:30;2.05;;;0.52;;
71790;SDS011;59638;52.126;5.434;2022-08-01T11:52:05;4.97;;;0.53;;
71790;SDS011;59638;52.126;5.434;2022-08-01T11:54:43;3.80;;;0.60;;
71790;SDS011;59638;52.126;5.434;2022-08-01T11:57:23;4.18;;;1.38;;
71790;SDS011;59638;52.126;5.434;2022-08-01T12:00:00;2.33;;;0.38;;
71790;SDS011;59638;52.126;5.434;2022-08-01T12:02:33;3.22;;;0.38;;
71790;SDS011;59638;52.126;5.434;2022-08-01T12:05:02;5.37;;;1.43;;
71790;SDS011;59638;52.126;5.434;2022-08-01T12:07:33;6.30;;;0.52;;
71790;SDS011;59638;52.126;5.434;2022-08-01T12:10:03;3.10;;;0.50;;
71790;SDS011;59638;52.126;5.434;2022-08-01T12:12:31;7.15;;;0.50;;
71790;SDS011;59638;52.126;5.434;2022-08-01T12:14:59;2.58;;;0.38;;
71790;SDS011;59638;52.126;5.434;2022-08-01T12:17:37;3.43;;;0.60;;
71790;SDS011;59638;52.126;5.434;2022-08-01T12:20:09;3.13;;;0.50;;
71790;SDS011;59638;52.126;5.434;2022-08-01T12:22:42;4.65;;;0.98;;
71790;SDS011;59638;52.126;5.434;2022-08-01T12:25:10;5.40;;;0.75;;
71790;SDS011;59638;52.126;5.434;2022-08-01T12:27:39;2.70;;;0.68;;
71790;SDS011;59638;52.126;5.434;2022-08-01T12:30:08;3.00;;;0.30;;
71790;SDS011;59638;52.126;5.434;2022-08-01T12:32:38;2.20;;;0.50;;
71790;SDS011;59638;52.126;5.434;2022-08-01T12:35:07;3.42;;;0.57;;
71790;SDS011;59638;52.126;5.434;2022-08-01T12:37:47;3.97;;;0.90;;
71790;SDS011;59638;52.126;5.434;2022-08-01T12:40:18;3.35;;;0.25;;
71790;SDS011;59638;52.126;5.434;2022-08-01T12:42:50;3.60;;;0.60;;
71790;SDS011;59638;52.126;5.434;2022-08-01T12:45:19;1.50;;;0.40;;
71790;SDS011;59638;52.126;5.434;2022-08-01T12:47:50;1.60;;;0.30;;
71790;SDS011;59638;52.126;5.434;2022-08-01T12:50:19;3.10;;;0.60;;
71790;SDS011;59638;52.126;5.434;2022-08-01T12:52:48;2.72;;;0.60;;
71790;SDS011;59638;52.126;5.434;2022-08-01T12:55:16;3.57;;;0.63;;
71790;SDS011;59638;52.126;5.434;2022-08-01T12:57:45;2.08;;;0.60;;
71790;SDS011;59638;52.126;5.434;2022-08-01T13:00:21;4.10;;;0.40;;
71790;SDS011;59638;52.126;5.434;2022-08-01T13:03:35;1.98;;;0.70;;
71790;SDS011;59638;52.126;5.434;2022-08-01T13:08:11;1.67;;;0.37;;
71790;SDS011;59638;52.126;5.434;2022-08-01T13:10:39;2.65;;;0.93;;
71790;SDS011;59638;52.126;5.434;2022-08-01T13:13:06;3.50;;;0.88;;
71790;SDS011;59638;52.126;5.434;2022-08-01T13:15:34;1.83;;;0.60;;
71790;SDS011;59638;52.126;5.434;2022-08-01T13:23:59;3.35;;;0.20;;
71790;SDS011;59638;52.126;5.434;2022-08-01T13:26:52;1.15;;;0.20;;
71790;SDS011;59638;52.126;5.434;2022-08-01T13:29:36;2.88;;;0.38;;
71790;SDS011;59638;52.126;5.434;2022-08-01T13:32:17;1.27;;;0.20;;
71790;SDS011;59638;52.126;5.434;2022-08-01T13:35:05;1.23;;;0.30;;
71790;SDS011;59638;52.126;5.434;2022-08-01T13:37:34;1.52;;;0.35;;
71790;SDS011;59638;52.126;5.434;2022-08-01T13:40:04;1.77;;;0.30;;
71790;SDS011;59638;52.126;5.434;2022-08-01T13:42:34;3.03;;;0.30;;
71790;SDS011;59638;52.126;5.434;2022-08-01T13:45:00;3.50;;;0.30;;
71790;SDS011;59638;52.126;5.434;2022-08-01T13:47:29;1.50;;;0.47;;
71790;SDS011;59638;52.126;5.434;2022-08-01T13:49:57;1.88;;;0.30;;
71790;SDS011;59638;52.126;5.434;2022-08-01T13:52:26;1.40;;;0.30;;
71790;SDS011;59638;52.126;5.434;2022-08-01T13:54:53;2.35;;;0.20;;
71790;SDS011;59638;52.126;5.434;2022-08-01T13:57:19;1.88;;;0.28;;
71790;SDS011;59638;52.126;5.434;2022-08-01T13:59:46;3.53;;;0.30;;
71790;SDS011;59638;52.126;5.434;2022-08-01T14:02:13;0.70;;;0.17;;
71790;SDS011;59638;52.126;5.434;2022-08-01T14:04:40;2.63;;;0.22;;
71790;SDS011;59638;52.126;5.434;2022-08-01T14:07:06;1.80;;;0.20;;
71790;SDS011;59638;52.126;5.434;2022-08-01T14:09:39;2.33;;;0.10;;
71790;SDS011;59638;52.126;5.434;2022-08-01T14:12:25;2.90;;;0.20;;
71790;SDS011;59638;52.126;5.434;2022-08-01T14:14:52;3.00;;;0.40;;
71790;SDS011;59638;52.126;5.434;2022-08-01T14:17:18;1.70;;;0.20;;
71790;SDS011;59638;52.126;5.434;2022-08-01T14:19:45;0.73;;;0.10;;
71790;SDS011;59638;52.126;5.434;2022-08-01T14:22:13;0.35;;;0.20;;
71790;SDS011;59638;52.126;5.434;2022-08-01T14:24:40;1.23;;;0.30;;
71790;SDS011;59638;52.126;5.434;2022-08-01T14:27:06;1.50;;;0.20;;
71790;SDS011;59638;52.126;5.434;2022-08-01T14:29:33;4.82;;;0.30;;
71790;SDS011;59638;52.126;5.434;2022-08-01T14:32:19;2.85;;;0.22;;
71790;SDS011;59638;52.126;5.434;2022-08-01T14:34:54;1.92;;;0.30;;
71790;SDS011;59638;52.126;5.434;2022-08-01T14:37:20;1.53;;;0.20;;
71790;SDS011;59638;52.126;5.434;2022-08-01T14:39:53;1.42;;;0.57;;
71790;SDS011;59638;52.126;5.434;2022-08-01T14:42:20;2.50;;;0.30;;
71790;SDS011;59638;52.126;5.434;2022-08-01T14:44:46;0.80;;;0.20;;
71790;SDS011;59638;52.126;5.434;2022-08-01T14:47:15;1.08;;;0.20;;
71790;SDS011;59638;52.126;5.434;2022-08-01T14:49:47;2.13;;;0.30;;
71790;SDS011;59638;52.126;5.434;2022-08-01T14:52:14;3.53;;;0.20;;
71790;SDS011;59638;52.126;5.434;2022-08-01T14:54:40;3.00;;;0.20;;
71790;SDS011;59638;52.126;5.434;2022-08-01T14:57:07;0.70;;;0.25;;
71790;SDS011;59638;52.126;5.434;2022-08-01T14:59:33;8.80;;;2.05;;
71790;SDS011;59638;52.126;5.434;2022-08-01T15:02:00;3.80;;;0.20;;
71790;SDS011;59638;52.126;5.434;2022-08-01T15:04:27;0.40;;;0.10;;
71790;SDS011;59638;52.126;5.434;2022-08-01T15:06:54;2.95;;;0.28;;
71790;SDS011;59638;52.126;5.434;2022-08-01T15:09:20;2.53;;;0.20;;
71790;SDS011;59638;52.126;5.434;2022-08-01T15:11:47;4.13;;;0.20;;
71790;SDS011;59638;52.126;5.434;2022-08-01T15:14:13;3.37;;;0.10;;
71790;SDS011;59638;52.126;5.434;2022-08-01T15:16:58;2.83;;;0.28;;
71790;SDS011;59638;52.126;5.434;2022-08-01T15:19:25;2.65;;;0.30;;
71790;SDS011;59638;52.126;5.434;2022-08-01T15:21:51;2.60;;;0.20;;
71790;SDS011;59638;52.126;5.434;2022-08-01T15:24:17;1.20;;;0.28;;
71790;SDS011;59638;52.126;5.434;2022-08-01T15:26:44;1.23;;;0.20;;
71790;SDS011;59638;52.126;5.434;2022-08-01T15:29:10;2.58;;;0.20;;
71790;SDS011;59638;52.126;5.434;2022-08-01T15:31:38;1.67;;;0.20;;
71790;SDS011;59638;52.126;5.434;2022-08-01T15:34:04;4.32;;;0.40;;
71790;SDS011;59638;52.126;5.434;2022-08-01T15:36:31;1.23;;;0.40;;
71790;SDS011;59638;52.126;5.434;2022-08-01T15:38:58;1.50;;;0.30;;
71790;SDS011;59638;52.126;5.434;2022-08-01T15:41:27;1.55;;;0.20;;
71790;SDS011;59638;52.126;5.434;2022-08-01T15:43:54;1.27;;;0.20;;
71790;SDS011;59638;52.126;5.434;2022-08-01T15:46:21;1.75;;;0.20;;
71790;SDS011;59638;52.126;5.434;2022-08-01T15:48:48;0.77;;;0.13;;
71790;SDS011;59638;52.126;5.434;2022-08-01T15:51:14;2.63;;;0.57;;
71790;SDS011;59638;52.126;5.434;2022-08-01T15:53:40;1.90;;;0.20;;
71790;SDS011;59638;52.126;5.434;2022-08-01T15:56:08;1.95;;;0.20;;
71790;SDS011;59638;52.126;5.434;2022-08-01T15:58:34;0.80;;;0.20;;
71790;SDS011;59638;52.126;5.434;2022-08-01T16:01:01;0.88;;;0.20;;